createdAt,value
2022-10-06T00:00:23.045Z,1013.22
2022-10-06T00:00:58.330Z,1013.20
2022-10-06T00:01:33.894Z,1013.20
2022-10-06T00:02:09.006Z,1013.26
2022-10-06T00:02:44.024Z,1013.25
2022-10-06T00:03:19.308Z,1013.26
2022-10-06T00:03:54.753Z,1013.26
2022-10-06T00:04:30.059Z,1013.28
2022-10-06T00:05:05.611Z,1013.32
2022-10-06T00:05:41.107Z,1013.31
2022-10-06T00:06:16.342Z,1013.34
2022-10-06T00:06:51.507Z,1013.31
2022-10-06T00:07:26.885Z,1013.27
2022-10-06T00:08:02.762Z,1013.28
2022-10-06T00:08:38.132Z,1013.32
2022-10-06T00:09:13.655Z,1013.35
2022-10-06T00:09:48.905Z,1013.36
2022-10-06T00:10:24.297Z,1013.36
2022-10-06T00:10:59.500Z,1013.36
2022-10-06T00:11:35.085Z,1013.39
2022-10-06T00:12:11.209Z,1013.42
2022-10-06T00:12:46.461Z,1013.45
2022-10-06T00:13:21.932Z,1013.44
2022-10-06T00:13:57.529Z,1013.47
2022-10-06T00:14:33.080Z,1013.47
2022-10-06T00:15:08.306Z,1013.45
2022-10-06T00:15:43.473Z,1013.52
2022-10-06T00:16:18.663Z,1013.51
2022-10-06T00:16:54.479Z,1013.55
2022-10-06T00:17:29.912Z,1013.56
2022-10-06T00:18:05.399Z,1013.58
2022-10-06T00:18:41.494Z,1013.60
2022-10-06T00:19:16.549Z,1013.59
2022-10-06T00:19:52.185Z,1013.65
2022-10-06T00:20:27.273Z,1013.67
2022-10-06T00:21:02.704Z,1013.72
2022-10-06T00:21:37.550Z,1013.70
2022-10-06T00:22:12.986Z,1013.73
2022-10-06T00:22:49.076Z,1013.69
2022-10-06T00:23:24.523Z,1013.67
2022-10-06T00:23:59.749Z,1013.70
2022-10-06T00:24:35.128Z,1013.75
2022-10-06T00:25:10.791Z,1013.73
2022-10-06T00:25:46.149Z,1013.76
2022-10-06T00:26:21.156Z,1013.80
2022-10-06T00:26:56.916Z,1013.77
2022-10-06T00:27:32.871Z,1013.75
2022-10-06T00:28:08.145Z,1013.80
2022-10-06T00:28:43.657Z,1013.80
2022-10-06T00:29:19.396Z,1013.81
2022-10-06T00:29:54.936Z,1013.82
2022-10-06T00:30:30.179Z,1013.85
2022-10-06T00:31:05.641Z,1013.83
2022-10-06T00:31:40.847Z,1013.90
2022-10-06T00:32:16.773Z,1013.86
2022-10-06T00:32:52.605Z,1013.86
2022-10-06T00:33:29.100Z,1013.86
2022-10-06T00:34:04.590Z,1013.85
2022-10-06T00:34:40.064Z,1013.89
2022-10-06T00:35:15.504Z,1013.92
2022-10-06T00:35:51.367Z,1013.92
2022-10-06T00:36:27.399Z,1013.96
2022-10-06T00:37:02.725Z,1013.98
2022-10-06T00:37:38.275Z,1013.98
2022-10-06T00:38:13.389Z,1013.93
2022-10-06T00:38:48.976Z,1013.99
2022-10-06T00:39:24.403Z,1014.01
2022-10-06T00:39:59.503Z,1014.02
2022-10-06T00:40:34.784Z,1014.02
2022-10-06T00:41:10.687Z,1014.02
2022-10-06T00:41:46.054Z,1014.00
2022-10-06T00:42:21.438Z,1014.00
2022-10-06T00:42:56.697Z,1014.03
2022-10-06T00:43:31.905Z,1014.04
2022-10-06T00:44:07.114Z,1014.04
2022-10-06T00:44:42.541Z,1014.10
2022-10-06T00:45:18.404Z,1014.07
2022-10-06T00:45:54.348Z,1014.06
2022-10-06T00:46:29.839Z,1014.09
2022-10-06T00:47:04.923Z,1014.09
2022-10-06T00:47:40.513Z,1014.07
2022-10-06T00:48:15.889Z,1014.10
2022-10-06T00:48:51.255Z,1014.10
2022-10-06T00:49:26.586Z,1014.14
2022-10-06T00:50:02.174Z,1014.20
2022-10-06T00:50:37.412Z,1014.20
2022-10-06T00:51:13.026Z,1014.23
2022-10-06T00:51:48.331Z,1014.16
2022-10-06T00:52:23.861Z,1014.21
2022-10-06T00:52:59.390Z,1014.22
2022-10-06T00:53:34.833Z,1014.27
2022-10-06T00:54:10.040Z,1014.22
2022-10-06T00:54:45.377Z,1014.28
2022-10-06T00:55:20.814Z,1014.25
2022-10-06T00:55:56.973Z,1014.29
2022-10-06T00:56:32.157Z,1014.25
2022-10-06T00:57:07.706Z,1014.28
2022-10-06T00:57:43.142Z,1014.25
2022-10-06T00:58:18.567Z,1014.26
2022-10-06T00:58:54.390Z,1014.32
2022-10-06T00:59:29.684Z,1014.25
2022-10-06T01:00:05.286Z,1014.35
2022-10-06T01:00:40.645Z,1014.25
2022-10-06T01:01:15.986Z,1014.31
2022-10-06T01:01:51.157Z,1014.28
2022-10-06T01:02:26.620Z,1014.30
2022-10-06T01:03:03.065Z,1014.24
2022-10-06T01:03:38.796Z,1014.28
2022-10-06T01:04:13.916Z,1014.27
2022-10-06T01:04:49.273Z,1014.29
2022-10-06T01:05:24.758Z,1014.32
2022-10-06T01:06:00.903Z,1014.25
2022-10-06T01:06:36.123Z,1014.30
2022-10-06T01:07:11.851Z,1014.33
2022-10-06T01:07:47.101Z,1014.31
2022-10-06T01:08:22.532Z,1014.31
2022-10-06T01:08:57.851Z,1014.33
2022-10-06T01:09:33.570Z,1014.35
2022-10-06T01:10:08.899Z,1014.37
2022-10-06T01:10:44.277Z,1014.34
2022-10-06T01:11:20.527Z,1014.34
2022-10-06T01:11:55.904Z,1014.35
2022-10-06T01:12:31.290Z,1014.35
2022-10-06T01:13:08.300Z,1014.36
2022-10-06T01:13:44.419Z,1014.37
2022-10-06T01:14:19.729Z,1014.29
2022-10-06T01:14:55.805Z,1014.39
2022-10-06T01:15:31.077Z,1014.40
2022-10-06T01:16:06.761Z,1014.40
2022-10-06T01:16:42.797Z,1014.38
2022-10-06T01:17:17.997Z,1014.37
2022-10-06T01:17:53.918Z,1014.47
2022-10-06T01:18:29.246Z,1014.43
2022-10-06T01:19:04.283Z,1014.37
2022-10-06T01:19:39.581Z,1014.41
2022-10-06T01:20:15.117Z,1014.40
2022-10-06T01:20:50.310Z,1014.45
2022-10-06T01:21:25.646Z,1014.46
2022-10-06T01:22:01.208Z,1014.42
2022-10-06T01:22:36.690Z,1014.44
2022-10-06T01:23:12.229Z,1014.48
2022-10-06T01:23:48.405Z,1014.41
2022-10-06T01:24:23.433Z,1014.46
2022-10-06T01:24:58.653Z,1014.48
2022-10-06T01:25:34.271Z,1014.53
2022-10-06T01:26:09.704Z,1014.52
2022-10-06T01:26:45.137Z,1014.55
2022-10-06T01:27:21.042Z,1014.53
2022-10-06T01:27:56.317Z,1014.49
2022-10-06T01:28:32.019Z,1014.56
2022-10-06T01:29:06.708Z,1014.58
2022-10-06T01:29:41.829Z,1014.57
2022-10-06T01:30:17.249Z,1014.56
2022-10-06T01:30:52.538Z,1014.59
2022-10-06T01:31:28.360Z,1014.52
2022-10-06T01:32:03.610Z,1014.53
2022-10-06T01:32:38.758Z,1014.56
2022-10-06T01:33:14.092Z,1014.59
2022-10-06T01:33:49.203Z,1014.63
2022-10-06T01:34:24.995Z,1014.62
2022-10-06T01:35:00.630Z,1014.62
2022-10-06T01:35:36.042Z,1014.62
2022-10-06T01:36:11.193Z,1014.61
2022-10-06T01:36:47.313Z,1014.60
2022-10-06T01:37:22.816Z,1014.61
2022-10-06T01:37:58.914Z,1014.67
2022-10-06T01:38:34.395Z,1014.63
2022-10-06T01:39:09.638Z,1014.70
2022-10-06T01:39:45.134Z,1014.69
2022-10-06T01:40:20.380Z,1014.73
2022-10-06T01:40:55.413Z,1014.75
2022-10-06T01:41:33.441Z,1014.75
2022-10-06T01:42:08.859Z,1014.78
2022-10-06T01:42:44.445Z,1014.76
2022-10-06T01:43:19.876Z,1014.73
2022-10-06T01:43:55.105Z,1014.71
2022-10-06T01:44:30.622Z,1014.73
2022-10-06T01:45:06.719Z,1014.71
2022-10-06T01:45:41.889Z,1014.72
2022-10-06T01:46:17.382Z,1014.77
2022-10-06T01:46:53.417Z,1014.76
2022-10-06T01:47:29.138Z,1014.76
2022-10-06T01:48:04.379Z,1014.76
2022-10-06T01:48:39.393Z,1014.81
2022-10-06T01:49:14.804Z,1014.77
2022-10-06T01:49:50.118Z,1014.81
2022-10-06T01:50:25.305Z,1014.86
2022-10-06T01:51:00.728Z,1014.81
2022-10-06T01:51:36.567Z,1014.83
2022-10-06T01:52:12.000Z,1014.82
2022-10-06T01:52:47.080Z,1014.81
2022-10-06T01:53:22.375Z,1014.82
2022-10-06T01:53:57.568Z,1014.87
2022-10-06T01:54:32.604Z,1014.83
2022-10-06T01:55:08.081Z,1014.86
2022-10-06T01:55:43.171Z,1014.88
2022-10-06T01:56:18.485Z,1014.88
2022-10-06T01:56:54.197Z,1014.91
2022-10-06T01:57:29.375Z,1014.93
2022-10-06T01:58:04.666Z,1014.94
2022-10-06T01:58:39.872Z,1014.93
2022-10-06T01:59:15.325Z,1014.95
2022-10-06T01:59:54.830Z,1014.96
2022-10-06T02:00:27.711Z,1014.95
2022-10-06T02:01:03.192Z,1014.96
2022-10-06T02:01:39.024Z,1014.91
2022-10-06T02:02:14.205Z,1014.97
2022-10-06T02:02:49.443Z,1014.94
2022-10-06T02:03:24.757Z,1014.98
2022-10-06T02:04:00.551Z,1015.00
2022-10-06T02:04:36.049Z,1015.02
2022-10-06T02:05:11.502Z,1015.07
2022-10-06T02:05:47.172Z,1015.10
2022-10-06T02:06:22.384Z,1015.18
2022-10-06T02:06:57.562Z,1015.09
2022-10-06T02:07:32.857Z,1015.09
2022-10-06T02:08:08.115Z,1015.09
2022-10-06T02:08:43.447Z,1015.08
2022-10-06T02:09:19.405Z,1015.11
2022-10-06T02:09:55.083Z,1015.11
2022-10-06T02:10:30.286Z,1015.08
2022-10-06T02:11:05.496Z,1015.18
2022-10-06T02:11:40.830Z,1015.11
2022-10-06T02:12:16.169Z,1015.11
2022-10-06T02:12:51.920Z,1015.15
2022-10-06T02:13:26.989Z,1015.11
2022-10-06T02:14:02.158Z,1015.10
2022-10-06T02:14:37.758Z,1015.12
2022-10-06T02:15:13.799Z,1015.13
2022-10-06T02:15:49.016Z,1015.16
2022-10-06T02:16:24.466Z,1015.15
2022-10-06T02:16:59.621Z,1015.16
2022-10-06T02:17:34.814Z,1015.20
2022-10-06T02:18:10.357Z,1015.24
2022-10-06T02:18:45.631Z,1015.23
2022-10-06T02:19:21.809Z,1015.24
2022-10-06T02:19:57.286Z,1015.28
2022-10-06T02:20:32.567Z,1015.31
2022-10-06T02:21:08.925Z,1015.24
2022-10-06T02:21:44.365Z,1015.31
2022-10-06T02:22:20.027Z,1015.32
2022-10-06T02:22:55.200Z,1015.30
2022-10-06T02:23:30.865Z,1015.31
2022-10-06T02:24:06.295Z,1015.34
2022-10-06T02:24:42.817Z,1015.33
2022-10-06T02:25:18.157Z,1015.38
2022-10-06T02:25:53.496Z,1015.38
2022-10-06T02:26:28.967Z,1015.38
2022-10-06T02:27:04.271Z,1015.44
2022-10-06T02:27:39.694Z,1015.39
2022-10-06T02:28:15.089Z,1015.40
2022-10-06T02:28:50.897Z,1015.47
2022-10-06T02:29:26.304Z,1015.47
2022-10-06T02:30:01.327Z,1015.49
2022-10-06T02:30:36.564Z,1015.52
2022-10-06T02:31:12.046Z,1015.51
2022-10-06T02:31:47.532Z,1015.48
2022-10-06T02:32:22.599Z,1015.51
2022-10-06T02:32:58.326Z,1015.53
2022-10-06T02:33:33.728Z,1015.53
2022-10-06T02:34:09.296Z,1015.52
2022-10-06T02:34:44.724Z,1015.53
2022-10-06T02:35:20.170Z,1015.59
2022-10-06T02:35:55.718Z,1015.62
2022-10-06T02:36:30.878Z,1015.62
2022-10-06T02:37:06.720Z,1015.64
2022-10-06T02:37:42.656Z,1015.63
2022-10-06T02:38:17.661Z,1015.63
2022-10-06T02:38:53.090Z,1015.64
2022-10-06T02:39:28.651Z,1015.63
2022-10-06T02:40:04.388Z,1015.57
2022-10-06T02:40:40.211Z,1015.66
2022-10-06T02:41:15.762Z,1015.66
2022-10-06T02:41:51.151Z,1015.63
2022-10-06T02:42:27.046Z,1015.67
2022-10-06T02:43:02.615Z,1015.66
2022-10-06T02:43:38.545Z,1015.71
2022-10-06T02:44:14.538Z,1015.73
2022-10-06T02:44:50.542Z,1015.72
2022-10-06T02:45:25.773Z,1015.75
2022-10-06T02:46:01.014Z,1015.79
2022-10-06T02:46:36.369Z,1015.80
2022-10-06T02:47:11.749Z,1015.78
2022-10-06T02:47:47.501Z,1015.76
2022-10-06T02:48:22.921Z,1015.81
2022-10-06T02:48:58.332Z,1015.83
2022-10-06T02:49:33.724Z,1015.83
2022-10-06T02:50:08.889Z,1015.84
2022-10-06T02:50:44.234Z,1015.80
2022-10-06T02:51:19.654Z,1015.82
2022-10-06T02:51:55.465Z,1015.83
2022-10-06T02:52:30.853Z,1015.87
2022-10-06T02:53:06.005Z,1015.87
2022-10-06T02:53:41.919Z,1015.87
2022-10-06T02:54:17.061Z,1015.90
2022-10-06T02:54:52.377Z,1015.88
2022-10-06T02:55:27.514Z,1015.87
2022-10-06T02:56:02.729Z,1015.89
2022-10-06T02:56:38.919Z,1015.94
2022-10-06T02:57:14.223Z,1015.90
2022-10-06T02:57:49.562Z,1015.94
2022-10-06T02:58:26.021Z,1015.92
2022-10-06T02:59:00.924Z,1015.94
2022-10-06T02:59:36.327Z,1015.92
2022-10-06T03:00:11.851Z,1015.94
2022-10-06T03:00:47.469Z,1015.90
2022-10-06T03:01:23.160Z,1015.93
2022-10-06T03:01:58.615Z,1015.93
2022-10-06T03:02:33.917Z,1015.97
2022-10-06T03:03:10.227Z,1016.00
2022-10-06T03:03:45.678Z,1016.03
2022-10-06T03:04:20.798Z,1016.03
2022-10-06T03:04:56.940Z,1016.04
2022-10-06T03:05:32.256Z,1015.97
2022-10-06T03:06:07.645Z,1016.01
2022-10-06T03:06:43.216Z,1015.99
2022-10-06T03:07:18.511Z,1015.99
2022-10-06T03:07:53.701Z,1015.94
2022-10-06T03:08:29.135Z,1015.99
2022-10-06T03:09:04.275Z,1016.06
2022-10-06T03:09:39.500Z,1016.09
2022-10-06T03:10:14.991Z,1016.08
2022-10-06T03:10:50.289Z,1016.12
2022-10-06T03:11:25.603Z,1016.18
2022-10-06T03:12:00.927Z,1016.13
2022-10-06T03:12:36.175Z,1016.17
2022-10-06T03:13:12.074Z,1016.22
2022-10-06T03:13:47.216Z,1016.22
2022-10-06T03:14:22.280Z,1016.19
2022-10-06T03:14:57.223Z,1016.21
2022-10-06T03:15:32.450Z,1016.24
2022-10-06T03:16:07.734Z,1016.19
2022-10-06T03:16:43.907Z,1016.15
2022-10-06T03:17:19.897Z,1016.23
2022-10-06T03:17:55.440Z,1016.25
2022-10-06T03:18:30.997Z,1016.26
2022-10-06T03:19:05.742Z,1016.26
2022-10-06T03:19:40.966Z,1016.29
2022-10-06T03:20:15.961Z,1016.26
2022-10-06T03:20:52.121Z,1016.31
2022-10-06T03:21:27.250Z,1016.33
2022-10-06T03:22:02.711Z,1016.38
2022-10-06T03:22:38.320Z,1016.44
2022-10-06T03:23:13.771Z,1016.48
2022-10-06T03:23:48.625Z,1016.42
2022-10-06T03:24:24.231Z,1016.41
2022-10-06T03:24:59.650Z,1016.41
2022-10-06T03:25:34.861Z,1016.40
2022-10-06T03:26:10.896Z,1016.45
2022-10-06T03:26:46.319Z,1016.45
2022-10-06T03:27:21.706Z,1016.44
2022-10-06T03:27:57.070Z,1016.43
2022-10-06T03:28:32.876Z,1016.47
2022-10-06T03:29:11.369Z,1016.51
2022-10-06T03:29:42.941Z,1016.46
2022-10-06T03:30:18.249Z,1016.49
2022-10-06T03:30:53.688Z,1016.45
2022-10-06T03:31:28.862Z,1016.47
2022-10-06T03:32:04.111Z,1016.44
2022-10-06T03:32:39.500Z,1016.52
2022-10-06T03:33:14.748Z,1016.48
2022-10-06T03:33:49.907Z,1016.49
2022-10-06T03:34:25.861Z,1016.52
2022-10-06T03:35:01.321Z,1016.57
2022-10-06T03:35:36.651Z,1016.56
2022-10-06T03:36:11.840Z,1016.59
2022-10-06T03:36:47.084Z,1016.57
2022-10-06T03:37:22.137Z,1016.64
2022-10-06T03:37:57.242Z,1016.62
2022-10-06T03:38:32.417Z,1016.65
2022-10-06T03:39:07.809Z,1016.66
2022-10-06T03:39:43.453Z,1016.65
2022-10-06T03:40:18.764Z,1016.69
2022-10-06T03:40:54.324Z,1016.71
2022-10-06T03:41:30.247Z,1016.73
2022-10-06T03:42:05.753Z,1016.75
2022-10-06T03:42:41.098Z,1016.77
2022-10-06T03:43:16.328Z,1016.73
2022-10-06T03:43:52.470Z,1016.74
2022-10-06T03:44:27.604Z,1016.75
2022-10-06T03:45:02.751Z,1016.77
2022-10-06T03:45:37.975Z,1016.77
2022-10-06T03:46:13.206Z,1016.77
2022-10-06T03:46:48.394Z,1016.75
2022-10-06T03:47:23.494Z,1016.77
2022-10-06T03:47:58.663Z,1016.76
2022-10-06T03:48:33.711Z,1016.76
2022-10-06T03:49:08.765Z,1016.80
2022-10-06T03:49:44.140Z,1016.85
2022-10-06T03:50:19.339Z,1016.84
2022-10-06T03:50:54.710Z,1016.88
2022-10-06T03:51:30.416Z,1016.90
2022-10-06T03:52:05.733Z,1016.92
2022-10-06T03:52:41.380Z,1016.89
2022-10-06T03:53:16.809Z,1016.83
2022-10-06T03:53:53.032Z,1016.85
2022-10-06T03:54:28.155Z,1016.88
2022-10-06T03:55:03.395Z,1016.81
2022-10-06T03:55:38.739Z,1016.91
2022-10-06T03:56:14.348Z,1016.85
2022-10-06T03:56:49.918Z,1016.85
2022-10-06T03:57:25.294Z,1016.86
2022-10-06T03:58:00.621Z,1016.84
2022-10-06T03:58:35.768Z,1016.87
2022-10-06T03:59:11.297Z,1016.88
2022-10-06T03:59:46.727Z,1016.88
2022-10-06T04:00:22.292Z,1016.96
2022-10-06T04:00:57.709Z,1016.89
2022-10-06T04:01:32.919Z,1016.90
2022-10-06T04:02:08.151Z,1016.98
2022-10-06T04:02:43.443Z,1016.95
2022-10-06T04:03:19.102Z,1016.95
2022-10-06T04:03:54.519Z,1016.97
2022-10-06T04:04:29.648Z,1017.03
2022-10-06T04:05:04.804Z,1017.02
2022-10-06T04:05:40.257Z,1017.05
2022-10-06T04:06:15.695Z,1017.03
2022-10-06T04:06:51.682Z,1017.14
2022-10-06T04:07:26.909Z,1017.17
2022-10-06T04:08:02.130Z,1017.14
2022-10-06T04:08:37.283Z,1017.16
2022-10-06T04:09:15.261Z,1017.07
2022-10-06T04:09:48.101Z,1017.11
2022-10-06T04:10:23.334Z,1017.09
2022-10-06T04:10:58.740Z,1017.15
2022-10-06T04:11:34.399Z,1017.19
2022-10-06T04:12:10.371Z,1017.18
2022-10-06T04:12:45.554Z,1017.15
2022-10-06T04:13:20.951Z,1017.18
2022-10-06T04:13:56.462Z,1017.14
2022-10-06T04:14:31.594Z,1017.13
2022-10-06T04:15:07.361Z,1017.19
2022-10-06T04:15:42.493Z,1017.18
2022-10-06T04:16:25.182Z,1017.20
2022-10-06T04:17:00.523Z,1017.23
2022-10-06T04:17:35.829Z,1017.22
2022-10-06T04:18:11.418Z,1017.24
2022-10-06T04:18:46.840Z,1017.22
2022-10-06T04:19:22.081Z,1017.25
2022-10-06T04:19:57.355Z,1017.33
2022-10-06T04:20:32.549Z,1017.34
2022-10-06T04:21:08.072Z,1017.26
2022-10-06T04:21:43.374Z,1017.41
2022-10-06T04:22:18.697Z,1017.37
2022-10-06T04:22:54.253Z,1017.43
2022-10-06T04:23:29.652Z,1017.38
2022-10-06T04:24:04.981Z,1017.43
2022-10-06T04:24:40.558Z,1017.41
2022-10-06T04:25:15.768Z,1017.41
2022-10-06T04:25:55.757Z,1017.41
2022-10-06T04:26:26.517Z,1017.41
2022-10-06T04:27:01.961Z,1017.46
2022-10-06T04:27:37.307Z,1017.46
2022-10-06T04:28:12.700Z,1017.46
2022-10-06T04:28:48.158Z,1017.50
2022-10-06T04:29:23.166Z,1017.47
2022-10-06T04:29:58.620Z,1017.50
2022-10-06T04:30:33.629Z,1017.49
2022-10-06T04:31:08.867Z,1017.46
2022-10-06T04:31:44.038Z,1017.49
2022-10-06T04:32:19.405Z,1017.53
2022-10-06T04:32:54.633Z,1017.53
2022-10-06T04:33:29.839Z,1017.51
2022-10-06T04:34:05.076Z,1017.51
2022-10-06T04:34:40.499Z,1017.54
2022-10-06T04:35:15.625Z,1017.56
2022-10-06T04:35:51.160Z,1017.57
2022-10-06T04:36:26.253Z,1017.58
2022-10-06T04:37:01.438Z,1017.60
2022-10-06T04:37:36.686Z,1017.60
2022-10-06T04:38:11.683Z,1017.58
2022-10-06T04:38:46.654Z,1017.62
2022-10-06T04:39:21.755Z,1017.60
2022-10-06T04:39:56.779Z,1017.61
2022-10-06T04:40:31.951Z,1017.65
2022-10-06T04:41:07.179Z,1017.67
2022-10-06T04:41:42.503Z,1017.65
2022-10-06T04:42:17.593Z,1017.73
2022-10-06T04:42:53.239Z,1017.68
2022-10-06T04:43:28.346Z,1017.76
2022-10-06T04:44:03.668Z,1017.70
2022-10-06T04:44:38.997Z,1017.79
2022-10-06T04:45:14.380Z,1017.76
2022-10-06T04:45:49.643Z,1017.79
2022-10-06T04:46:42.232Z,1017.80
2022-10-06T04:47:00.438Z,1017.84
2022-10-06T04:47:35.469Z,1017.85
2022-10-06T04:48:10.665Z,1017.79
2022-10-06T04:48:45.783Z,1017.82
2022-10-06T04:49:21.314Z,1017.81
2022-10-06T04:49:56.522Z,1017.82
2022-10-06T04:50:31.840Z,1017.82
2022-10-06T04:51:07.229Z,1017.80
2022-10-06T04:51:42.749Z,1017.81
2022-10-06T04:52:18.373Z,1017.80
2022-10-06T04:52:53.991Z,1017.82
2022-10-06T04:53:28.920Z,1017.86
2022-10-06T04:54:04.325Z,1017.88
2022-10-06T04:54:39.679Z,1017.95
2022-10-06T04:55:14.667Z,1017.94
2022-10-06T04:55:49.980Z,1017.94
2022-10-06T04:56:25.190Z,1017.94
2022-10-06T04:57:00.521Z,1017.94
2022-10-06T04:57:36.001Z,1017.93
2022-10-06T04:58:11.397Z,1017.94
2022-10-06T04:58:46.818Z,1017.97
2022-10-06T04:59:22.358Z,1018.01
2022-10-06T04:59:59.473Z,1018.04
2022-10-06T05:00:33.273Z,1018.06
2022-10-06T05:01:08.507Z,1018.06
2022-10-06T05:01:43.699Z,1018.09
2022-10-06T05:02:19.346Z,1018.07
2022-10-06T05:02:54.443Z,1018.07
2022-10-06T05:03:29.852Z,1018.10
2022-10-06T05:04:05.268Z,1018.07
2022-10-06T05:04:40.703Z,1018.09
2022-10-06T05:05:15.999Z,1018.06
2022-10-06T05:05:51.111Z,1018.04
2022-10-06T05:06:26.565Z,1018.09
2022-10-06T05:07:01.896Z,1018.12
2022-10-06T05:07:36.994Z,1018.08
2022-10-06T05:08:12.011Z,1018.06
2022-10-06T05:08:47.323Z,1018.13
2022-10-06T05:09:22.619Z,1018.10
2022-10-06T05:09:58.030Z,1018.14
2022-10-06T05:10:33.363Z,1018.16
2022-10-06T05:11:08.562Z,1018.18
2022-10-06T05:11:43.887Z,1018.19
2022-10-06T05:12:18.982Z,1018.27
2022-10-06T05:12:54.297Z,1018.24
2022-10-06T05:13:29.731Z,1018.27
2022-10-06T05:14:04.907Z,1018.30
2022-10-06T05:14:40.127Z,1018.28
2022-10-06T05:15:15.425Z,1018.28
2022-10-06T05:15:50.574Z,1018.30
2022-10-06T05:16:25.887Z,1018.31
2022-10-06T05:17:01.569Z,1018.36
2022-10-06T05:17:37.088Z,1018.38
2022-10-06T05:18:12.290Z,1018.41
2022-10-06T05:18:47.733Z,1018.37
2022-10-06T05:19:23.196Z,1018.39
2022-10-06T05:19:58.524Z,1018.41
2022-10-06T05:20:33.798Z,1018.41
2022-10-06T05:21:09.355Z,1018.39
2022-10-06T05:21:44.539Z,1018.38
2022-10-06T05:22:19.710Z,1018.42
2022-10-06T05:22:54.938Z,1018.40
2022-10-06T05:23:30.454Z,1018.46
2022-10-06T05:24:05.688Z,1018.46
2022-10-06T05:24:40.815Z,1018.48
2022-10-06T05:25:16.487Z,1018.52
2022-10-06T05:25:51.704Z,1018.51
2022-10-06T05:26:27.418Z,1018.57
2022-10-06T05:27:02.563Z,1018.53
2022-10-06T05:27:37.849Z,1018.55
2022-10-06T05:28:13.166Z,1018.56
2022-10-06T05:28:48.558Z,1018.54
2022-10-06T05:29:23.788Z,1018.57
2022-10-06T05:29:59.002Z,1018.58
2022-10-06T05:30:34.290Z,1018.60
2022-10-06T05:31:09.599Z,1018.59
2022-10-06T05:31:44.950Z,1018.58
2022-10-06T05:32:20.044Z,1018.59
2022-10-06T05:32:55.460Z,1018.67
2022-10-06T05:33:30.571Z,1018.60
2022-10-06T05:34:06.083Z,1018.66
2022-10-06T05:34:41.380Z,1018.66
2022-10-06T05:35:16.789Z,1018.68
2022-10-06T05:35:52.212Z,1018.68
2022-10-06T05:36:27.521Z,1018.72
2022-10-06T05:37:02.648Z,1018.66
2022-10-06T05:37:37.837Z,1018.68
2022-10-06T05:38:13.033Z,1018.73
2022-10-06T05:38:48.443Z,1018.70
2022-10-06T05:39:23.749Z,1018.69
2022-10-06T05:39:58.799Z,1018.73
2022-10-06T05:40:33.910Z,1018.71
2022-10-06T05:41:09.329Z,1018.75
2022-10-06T05:41:44.599Z,1018.75
2022-10-06T05:42:19.811Z,1018.75
2022-10-06T05:42:54.822Z,1018.79
2022-10-06T05:43:29.839Z,1018.75
2022-10-06T05:44:04.939Z,1018.79
2022-10-06T05:44:40.268Z,1018.81
2022-10-06T05:45:15.381Z,1018.79
2022-10-06T05:45:50.611Z,1018.80
2022-10-06T05:46:25.867Z,1018.80
2022-10-06T05:47:01.272Z,1018.86
2022-10-06T05:47:36.170Z,1018.83
2022-10-06T05:48:11.173Z,1018.85
2022-10-06T05:48:46.285Z,1018.85
2022-10-06T05:49:21.392Z,1018.86
2022-10-06T05:49:56.611Z,1018.86
2022-10-06T05:50:31.942Z,1018.89
2022-10-06T05:51:07.075Z,1018.91
2022-10-06T05:51:42.338Z,1018.91
2022-10-06T05:52:17.404Z,1018.90
2022-10-06T05:52:52.719Z,1018.87
2022-10-06T05:53:28.081Z,1018.92
2022-10-06T05:54:03.196Z,1018.95
2022-10-06T05:54:38.385Z,1018.95
2022-10-06T05:55:13.682Z,1018.99
2022-10-06T05:55:48.983Z,1018.99
2022-10-06T05:56:24.375Z,1019.02
2022-10-06T05:56:59.674Z,1019.02
2022-10-06T05:57:34.807Z,1019.02
2022-10-06T05:58:09.867Z,1019.03
2022-10-06T05:58:45.057Z,1019.05
2022-10-06T05:59:20.058Z,1019.02
2022-10-06T05:59:55.569Z,1019.04
2022-10-06T06:00:30.798Z,1019.08
2022-10-06T06:01:05.909Z,1019.06
2022-10-06T06:01:41.373Z,1019.06
2022-10-06T06:02:16.425Z,1019.08
2022-10-06T06:02:51.590Z,1019.10
2022-10-06T06:03:26.609Z,1019.11
2022-10-06T06:04:02.221Z,1019.15
2022-10-06T06:04:37.638Z,1019.12
2022-10-06T06:05:13.230Z,1019.10
2022-10-06T06:05:48.534Z,1019.10
2022-10-06T06:06:23.838Z,1019.14
2022-10-06T06:06:59.372Z,1019.12
2022-10-06T06:07:34.753Z,1019.14
2022-10-06T06:08:10.168Z,1019.12
2022-10-06T06:08:45.685Z,1019.14
2022-10-06T06:09:20.999Z,1019.14
2022-10-06T06:09:56.225Z,1019.17
2022-10-06T06:10:31.537Z,1019.19
2022-10-06T06:11:06.781Z,1019.17
2022-10-06T06:11:42.091Z,1019.21
2022-10-06T06:12:16.976Z,1019.23
2022-10-06T06:12:52.278Z,1019.18
2022-10-06T06:13:27.476Z,1019.17
2022-10-06T06:14:03.116Z,1019.16
2022-10-06T06:14:38.241Z,1019.24
2022-10-06T06:15:13.858Z,1019.20
2022-10-06T06:15:48.931Z,1019.19
2022-10-06T06:16:24.207Z,1019.21
2022-10-06T06:16:59.374Z,1019.24
2022-10-06T06:17:34.555Z,1019.27
2022-10-06T06:18:09.875Z,1019.22
2022-10-06T06:18:45.085Z,1019.25
2022-10-06T06:19:20.524Z,1019.25
2022-10-06T06:19:56.016Z,1019.24
2022-10-06T06:20:31.333Z,1019.24
2022-10-06T06:21:06.737Z,1019.32
2022-10-06T06:21:41.869Z,1019.36
2022-10-06T06:22:17.269Z,1019.30
2022-10-06T06:22:52.489Z,1019.32
2022-10-06T06:23:27.658Z,1019.33
2022-10-06T06:24:03.184Z,1019.39
2022-10-06T06:24:38.526Z,1019.40
2022-10-06T06:25:13.614Z,1019.42
2022-10-06T06:25:48.858Z,1019.42
2022-10-06T06:26:23.974Z,1019.45
2022-10-06T06:26:58.896Z,1019.46
2022-10-06T06:27:34.528Z,1019.44
2022-10-06T06:28:09.863Z,1019.48
2022-10-06T06:28:45.183Z,1019.48
2022-10-06T06:29:20.211Z,1019.51
2022-10-06T06:29:55.380Z,1019.52
2022-10-06T06:30:30.898Z,1019.51
2022-10-06T06:31:06.142Z,1019.54
2022-10-06T06:31:41.466Z,1019.51
2022-10-06T06:32:16.734Z,1019.52
2022-10-06T06:32:51.718Z,1019.56
2022-10-06T06:33:26.842Z,1019.56
2022-10-06T06:34:02.160Z,1019.58
2022-10-06T06:34:37.360Z,1019.57
2022-10-06T06:35:12.700Z,1019.57
2022-10-06T06:35:47.904Z,1019.57
2022-10-06T06:36:23.303Z,1019.61
2022-10-06T06:37:03.629Z,1019.64
2022-10-06T06:37:33.917Z,1019.64
2022-10-06T06:38:09.332Z,1019.69
2022-10-06T06:38:44.327Z,1019.69
2022-10-06T06:39:19.458Z,1019.68
2022-10-06T06:39:54.751Z,1019.71
2022-10-06T06:40:29.778Z,1019.73
2022-10-06T06:41:04.982Z,1019.74
2022-10-06T06:41:40.302Z,1019.79
2022-10-06T06:42:15.819Z,1019.78
2022-10-06T06:42:53.786Z,1019.77
2022-10-06T06:43:26.853Z,1019.76
2022-10-06T06:44:01.560Z,1019.81
2022-10-06T06:44:36.964Z,1019.77
2022-10-06T06:45:12.366Z,1019.81
2022-10-06T06:45:47.834Z,1019.84
2022-10-06T06:46:23.285Z,1019.79
2022-10-06T06:46:58.489Z,1019.80
2022-10-06T06:47:33.637Z,1019.81
2022-10-06T06:48:08.822Z,1019.83
2022-10-06T06:48:43.854Z,1019.81
2022-10-06T06:49:19.270Z,1019.83
2022-10-06T06:49:54.265Z,1019.90
2022-10-06T06:50:29.596Z,1019.88
2022-10-06T06:51:04.811Z,1019.85
2022-10-06T06:51:39.903Z,1019.88
2022-10-06T06:52:15.913Z,1019.89
2022-10-06T06:52:51.310Z,1019.96
2022-10-06T06:53:26.627Z,1019.91
2022-10-06T06:54:01.536Z,1019.89
2022-10-06T06:54:36.759Z,1020.05
2022-10-06T06:55:11.870Z,1020.05
2022-10-06T06:55:47.273Z,1020.08
2022-10-06T06:56:22.402Z,1020.10
2022-10-06T06:56:57.614Z,1020.10
2022-10-06T06:57:32.722Z,1020.09
2022-10-06T06:58:08.025Z,1020.08
2022-10-06T06:58:43.203Z,1020.11
2022-10-06T06:59:18.414Z,1020.11
2022-10-06T06:59:53.487Z,1020.17
2022-10-06T07:00:32.488Z,1020.08
2022-10-06T07:01:04.369Z,1020.12
2022-10-06T07:01:39.599Z,1020.17
2022-10-06T07:02:14.935Z,1020.14
2022-10-06T07:02:50.061Z,1020.16
2022-10-06T07:03:52.019Z,1020.19
2022-10-06T07:04:00.751Z,1020.15
2022-10-06T07:04:35.875Z,1020.19
2022-10-06T07:05:11.083Z,1020.20
2022-10-06T07:05:46.373Z,1020.21
2022-10-06T07:06:23.531Z,1020.18
2022-10-06T07:06:56.908Z,1020.22
2022-10-06T07:07:32.130Z,1020.27
2022-10-06T07:08:07.414Z,1020.26